• Join FlightAware (Why Join?)
  • Login
  • US Flag 
11:28PM EDT


 

Airport Tracker/Info


-or-


 

Live Flight TrackerFlight Track Log ✈ ELJ384 ✈ 08-Nov-2013 ✈ KPWK - KAPF

Flight Track Log - Related Links

Times and Time Zones

All times are in EST time to prevent confusion due to time zone crossing. See the ELJ384 flight status page for this flight to view local times or setup timezone preferences in your user account.

Time Position Orientation Groundspeed Altitude Reporting Facility
EST Latitude Longitude Course Direction KTS MPH feet Rate Location/Type
03:02PM 42.1664 -87.7989 37° Northeast 270 311 5,300  Level Chicago Center
03:03PM 42.2294 -87.8053 356° North 275 316 10,200 4,440 Climbing Chicago Center
03:04PM 42.1969 -87.8728 237° Southwest 259 298 14,500 3,000 Climbing Chicago Center
03:05PM 42.1042 -87.8619 175° South 332 382 16,500 2,580 Climbing Chicago Center
03:06PM 41.5613 -87.6410 171° South  Level Estimated
03:06PM 41.9731 -87.8486 176° South 389 448 19,900  Level Chicago Center
03:07PM 41.8617 -87.8486 180° South 398 458 23,000 2,940 Climbing Chicago Center
03:08PM 41.7489 -87.8442 178° South 403 464 26,000 2,700 Climbing Chicago Center
03:09PM 41.6344 -87.8419 179° South 407 468 28,600 2,460 Climbing Chicago Center
03:10PM 41.5139 -87.8386 179° South 423 487 31,200 2,400 Climbing Chicago Center
03:11PM 41.3875 -87.8369 179° South 441 507 33,700 1,980 Climbing Chicago Center
03:12PM 41.2569 -87.8333 179° South 457 526 35,400 2,220 Climbing Chicago Center
03:13PM 41.1017 -87.8292 179° South 463 533 38,400 2,460 Climbing Chicago Center
03:14PM 40.9781 -87.8261 179° South 452 520 40,600 1,200 Climbing Chicago Center
03:15PM 40.8572 -87.8236 179° South 437 503 41,000 180 Climbing Chicago Center
03:16PM 40.7353 -87.8200 179° South 439 505 41,000  Level Chicago Center
03:17PM 40.6147 -87.8167 179° South 437 503 41,000  Level Chicago Center
03:18PM 40.4933 -87.8147 179° South 436 502 41,000  Level Chicago Center
03:19PM 40.3475 -87.8122 179° South 437 503 41,000  Level Chicago Center
03:20PM 40.2258 -87.8097 179° South 439 505 41,000  Level Chicago Center
03:21PM 40.1136 -87.8067 179° South 440 506 41,000  Level Chicago Center
03:22PM 40.0139 -87.8061 180° South 439 505 41,000  Level Indianapolis Center
03:23PM 39.8906 -87.8033 179° South 443 510 41,000  Level Indianapolis Center
03:24PM 39.7683 -87.8014 179° South 444 511 41,000  Level Indianapolis Center
03:25PM 39.6456 -87.7978 179° South 444 511 41,000  Level Indianapolis Center
03:26PM 39.4953 -87.7947 179° South 449 517 41,000  Level Indianapolis Center
03:27PM 39.3675 -87.7919 179° South 449 517 41,000  Level Indianapolis Center
03:28PM 39.2400 -87.7467 165° South 478 550 41,000  Level Indianapolis Center
03:29PM 39.1117 -87.6875 160° South 487 560 41,000  Level Indianapolis Center
03:30PM 38.9836 -87.6331 162° South 485 558 41,000  Level Indianapolis Center
03:31PM 38.8553 -87.5769 161° South 486 559 41,000  Level Indianapolis Center
03:32PM 38.7275 -87.5225 162° South 484 557 41,000  Level Indianapolis Center
03:33PM 38.5731 -87.4567 162° South 486 559 41,000  Level Indianapolis Center
03:34PM 38.4489 -87.4031 161° South 476 548 41,000  Level Indianapolis Center
03:35PM 38.3250 -87.3517 162° South 473 544 41,000  Level Indianapolis Center
03:36PM 38.2017 -87.2989 161° South 475 547 41,000  Level Indianapolis Center
03:38PM 38.0525 -87.2358 162° South 475 547 41,000  Level Indianapolis Center
03:39PM 37.9267 -87.1831 162° South 478 550 41,000  Level Indianapolis Center
03:40PM 37.8008 -87.1300 162° South 477 549 41,000  Level Indianapolis Center
03:41PM 37.6764 -87.0772 161° South 472 543 41,000  Level Indianapolis Center
03:42PM 37.5506 -87.0244 162° South 473 544 41,000  Level Indianapolis Center
03:43PM 37.4217 -86.9753 163° South 465 535 41,000  Level Indianapolis Center
03:44PM 37.2956 -86.9217 161° South 470 541 41,000  Level Indianapolis Center
03:45PM 37.1703 -86.8706 162° South 470 541 41,000  Level Indianapolis Center
03:46PM 37.0236 -86.8100 162° South 470 541 41,000  Level Indianapolis Center
03:47PM 36.8986 -86.7589 162° South 468 539 41,000  Level Indianapolis Center
03:48PM 36.7736 -86.7075 162° South 466 536 41,000  Level Indianapolis Center
03:49PM 36.6283 -86.6467 161° South 470 541 41,000  Level Memphis Center
03:50PM 36.4953 -86.5908 161° South 470 541 41,000  Level Memphis Center
03:51PM 36.3689 -86.5425 163° South 470 541 41,000  Level Memphis Center
03:52PM 36.2464 -86.4942 162° South 470 541 41,000  Level Memphis Center
03:53PM 36.1239 -86.4461 162° South 464 534 41,000  Level Memphis Center
03:54PM 36.0014 -86.3956 162° South 464 534 41,000  Level Memphis Center
03:55PM 35.8833 -86.3525 164° South 464 534 41,000  Level Memphis Center
03:58PM 35.5903 -86.2350 162° South 444 511 41,000  Level Atlanta Center
03:59PM 35.4681 -86.1883 163° South 455 524 41,000  Level Atlanta Center
04:00PM 35.3478 -86.1419 163° South 455 524 41,000  Level Atlanta Center
04:01PM 35.2297 -86.0933 161° South 455 524 41,000  Level Atlanta Center
04:02PM 35.1094 -86.0497 163° South 455 524 41,000  Level Atlanta Center
04:03PM 34.9869 -86.0036 163° South 455 524 41,000  Level Atlanta Center
04:04PM 34.8689 -85.9528 161° South 455 524 41,000  Level Atlanta Center
04:05PM 34.7486 -85.9044 162° South 455 524 41,000  Level Atlanta Center
04:06PM 34.6428 -85.8642 163° South 449 517 41,000  Level Atlanta Center
04:07PM 34.5225 -85.8161 162° South 449 517 41,000  Level Atlanta Center
04:08PM 34.3872 -85.7731 165° South 454 522 41,000  Level Atlanta Center
04:09PM 34.2711 -85.7281 162° South 449 517 41,000  Level Atlanta Center
04:10PM 34.1528 -85.6831 163° South 449 517 41,000  Level Atlanta Center
04:11PM 34.0322 -85.6381 163° South 458 527 41,000  Level Atlanta Center
04:12PM 33.9222 -85.5958 162° South 458 527 41,000  Level Atlanta Center
04:13PM 33.8017 -85.5511 163° South 451 519 41,000  Level Atlanta Center
04:14PM 33.6792 -85.5067 163° South 459 528 41,000  Level Atlanta Center
04:15PM 33.5606 -85.4597 162° South 454 522 41,000  Level Atlanta Center
04:16PM 33.4400 -85.4181 164° South 454 522 41,000  Level Atlanta Center
04:17PM 33.3175 -85.3711 162° South 454 522 41,000  Level Atlanta Center
04:18PM 33.1969 -85.3247 162° South 454 522 41,000  Level Atlanta Center
04:19PM 33.0742 -85.2808 163° South 454 522 41,000  Level Atlanta Center
04:20PM 32.9431 -85.2269 161° South 454 522 41,000  Level Atlanta Center
04:21PM 32.8247 -85.1833 163° South 454 522 41,000  Level Atlanta Center
04:22PM 32.7039 -85.1397 163° South 454 522 41,000  Level Atlanta Center
04:23PM 32.5792 -85.0939 163° South 459 528 41,000  Level Atlanta Center
04:24PM 32.4625 -85.0481 162° South 454 522 41,000  Level Atlanta Center
04:25PM 32.3544 -85.0125 164° South 454 522 41,000  Level Atlanta Center
04:28PM 31.9278 -84.8583 163° South 447 514 41,000  Level Jacksonville Center
04:29PM 31.8094 -84.8189 164° South 440 506 41,000  Level Jacksonville Center
04:30PM 31.6889 -84.7775 164° South 440 506 41,000  Level Jacksonville Center
04:31PM 31.5706 -84.7361 163° South 440 506 41,000  Level Jacksonville Center
04:32PM 31.4503 -84.6897 162° South 445 512 41,000  Level Jacksonville Center
04:33PM 31.3319 -84.6439 162° South 451 519 41,000  Level Jacksonville Center
04:34PM 31.2136 -84.5931 160° South 456 525 41,000  Level Jacksonville Center
04:35PM 31.0953 -84.5422 160° South 461 531 41,000  Level Jacksonville Center
04:36PM 30.9769 -84.4894 159° South 461 531 41,000  Level Jacksonville Center
04:37PM 30.8564 -84.4389 160° South 461 531 41,000  Level Jacksonville Center
04:38PM 30.7358 -84.3861 159° South 461 531 41,000  Level Jacksonville Center
04:39PM 30.6194 -84.3361 160° South 461 531 41,000  Level Jacksonville Center
04:40PM 30.5011 -84.2836 159° South 455 524 41,000  Level Jacksonville Center
04:41PM 30.3828 -84.2339 160° South 455 524 41,000  Level Jacksonville Center
04:42PM 30.2619 -84.1842 160° South 455 524 41,000  Level Jacksonville Center
04:43PM 30.1622 -84.1419 160° South 444 511 41,000  Level Jacksonville Center
04:44PM 30.0436 -84.0947 161° South 444 511 41,000  Level Jacksonville Center
04:45PM 29.9253 -84.0428 159° South 444 511 41,000  Level Jacksonville Center
04:46PM 29.8067 -83.9961 161° South 444 511 41,000  Level Jacksonville Center
04:47PM 29.6922 -83.9469 160° South 444 511 41,000  Level Jacksonville Center
04:48PM 29.5736 -83.9003 161° South 444 511 41,000  Level Jacksonville Center
04:49PM 29.4592 -83.8514 160° South 444 511 41,000  Level Jacksonville Center
04:50PM 29.3425 -83.8025 160° South 444 511 41,000  Level Jacksonville Center
04:51PM 29.2281 -83.7564 161° South 444 511 41,000  Level Jacksonville Center
04:52PM 29.0992 -83.7006 159° South 444 511 41,000  Level Jacksonville Center
04:53PM 28.9825 -83.6544 161° South 444 511 41,000 -60 Level Jacksonville Center
04:54PM 28.8658 -83.6039 159° South 444 511 40,900 -720 Descending Jacksonville Center
04:56PM 28.7019 -83.5353 160° South 428 493 39,300 -1,080 Descending Miami Center
04:57PM 28.5872 -83.4908 161° South 428 493 38,200 -1,200 Descending Miami Center
04:58PM 28.4686 -83.4436 161° South 439 505 37,000 -1,200 Descending Miami Center
04:59PM 28.3461 -83.3892 159° South 457 526 35,800 -1,020 Descending Miami Center
05:00PM 28.2072 -83.3669 172° South 472 543 35,000 -540 Descending Miami Center
05:01PM 28.0844 -83.3647 179° South 450 518 34,800 -1,080 Descending Miami Center
05:02PM 27.9686 -83.2947 152° Southeast 450 518 32,900 -1,800 Descending Miami Center
05:03PM 27.8617 -83.2158 147° Southeast 450 518 31,300 -1,620 Descending Miami Center
05:04PM 27.7544 -83.1419 149° Southeast 450 518 29,700 -1,680 Descending Miami Center
05:05PM 27.6389 -83.0628 149° Southeast 458 527 28,000 -1,800 Descending Miami Center
05:06PM 27.5256 -82.9842 148° Southeast 470 541 26,200 -1,980 Descending Miami Center
05:07PM 27.4119 -82.9056 148° Southeast 482 555 24,100 -1,980 Descending Miami Center
05:08PM 27.3064 -82.8325 148° Southeast 471 542 22,300 -1,800 Descending Miami Center
05:09PM 27.2011 -82.7592 148° Southeast 458 527 20,500 -1,800 Descending Miami Center
05:10PM 27.1014 -82.6911 149° Southeast 438 504 18,700 -1,740 Descending Miami Center
05:11PM 27.0039 -82.6258 149° Southeast 421 484 17,100 -1,620 Descending Miami Center
05:12PM 26.9083 -82.5606 149° Southeast 408 470 15,500 -1,740 Descending Miami Center
05:13PM 26.8150 -82.4956 148° Southeast 408 470 13,700 -1,740 Descending Miami Center
05:14PM 26.7214 -82.4328 149° Southeast 403 464 12,100 -1,440 Descending Miami Center
05:15PM 26.6319 -82.3706 148° Southeast 392 451 10,900 -1,200 Descending Miami Center
05:16PM 26.5608 -82.3208 148° Southeast 343 395 9,800 -1,200 Descending Miami Center
05:17PM 26.4939 -82.2714 147° Southeast 299 344 8,500 -1,140 Descending Miami Center
05:18PM 26.4267 -82.2219 147° Southeast 290 334 7,600 -1,020 Descending Miami Center
05:19PM 26.3617 -82.1750 147° Southeast 290 334 6,500 -1,080 Descending Miami Center
05:20PM 26.3047 -82.1353 148° Southeast 284 327 5,500 -960 Descending Miami Center
05:21PM 26.2436 -82.0886 146° Southeast 273 314 4,600 -900 Descending Miami Center
05:23PM 26.0840 -81.9316 66° East  Level FlightAware Approximate
05:30PM 26.1500 -81.7667 66° East  Level FlightAware Approximate
05:31PM 26.1524 -81.7756 66° East  Level Estimated
05:32PM 26.1524 -81.7756 66° East  Level Estimated
05:33PM 26.1524 -81.7756 66° East  Level Estimated
05:34PM 26.1524 -81.7756 66° East  Level Estimated
05:35PM 26.1524 -81.7756 66° East  Level Estimated